sensor_id;sensor_type;location;lat;lon;timestamp;P1;durP1;ratioP1;P2;durP2;ratioP2
9854;SDS011;4966;48.112;9.282;2022-09-30T00:02:14;2.00;;;1.08;;
9854;SDS011;4966;48.112;9.282;2022-09-30T00:04:39;2.08;;;1.15;;
9854;SDS011;4966;48.112;9.282;2022-09-30T00:07:05;2.13;;;1.20;;
9854;SDS011;4966;48.112;9.282;2022-09-30T00:09:30;2.97;;;1.55;;
9854;SDS011;4966;48.112;9.282;2022-09-30T00:11:55;1.95;;;1.13;;
9854;SDS011;4966;48.112;9.282;2022-09-30T00:14:21;4.57;;;1.30;;
9854;SDS011;4966;48.112;9.282;2022-09-30T00:16:47;2.40;;;1.20;;
9854;SDS011;4966;48.112;9.282;2022-09-30T00:19:14;2.55;;;1.40;;
9854;SDS011;4966;48.112;9.282;2022-09-30T00:21:39;2.42;;;1.42;;
9854;SDS011;4966;48.112;9.282;2022-09-30T00:24:05;4.28;;;1.50;;
9854;SDS011;4966;48.112;9.282;2022-09-30T00:26:31;3.35;;;1.42;;
9854;SDS011;4966;48.112;9.282;2022-09-30T00:28:58;7.05;;;1.50;;
9854;SDS011;4966;48.112;9.282;2022-09-30T00:31:26;2.22;;;1.20;;
9854;SDS011;4966;48.112;9.282;2022-09-30T00:33:53;14.25;;;1.90;;
9854;SDS011;4966;48.112;9.282;2022-09-30T00:36:32;4.82;;;1.50;;
9854;SDS011;4966;48.112;9.282;2022-09-30T00:39:03;5.38;;;1.50;;
9854;SDS011;4966;48.112;9.282;2022-09-30T00:41:29;2.42;;;1.40;;
9854;SDS011;4966;48.112;9.282;2022-09-30T00:43:55;2.30;;;1.20;;
9854;SDS011;4966;48.112;9.282;2022-09-30T00:48:46;2.25;;;1.20;;
9854;SDS011;4966;48.112;9.282;2022-09-30T00:51:17;3.05;;;1.20;;
9854;SDS011;4966;48.112;9.282;2022-09-30T00:56:51;1.85;;;0.95;;
9854;SDS011;4966;48.112;9.282;2022-09-30T00:59:25;5.00;;;1.20;;
9854;SDS011;4966;48.112;9.282;2022-09-30T01:01:52;2.90;;;1.00;;
9854;SDS011;4966;48.112;9.282;2022-09-30T01:04:22;1.77;;;0.98;;
9854;SDS011;4966;48.112;9.282;2022-09-30T01:06:50;2.53;;;1.33;;
9854;SDS011;4966;48.112;9.282;2022-09-30T01:09:16;2.30;;;1.20;;
9854;SDS011;4966;48.112;9.282;2022-09-30T01:11:43;1.73;;;1.13;;
9854;SDS011;4966;48.112;9.282;2022-09-30T01:14:10;2.47;;;1.08;;
9854;SDS011;4966;48.112;9.282;2022-09-30T01:22:27;1.90;;;0.95;;
9854;SDS011;4966;48.112;9.282;2022-09-30T01:36:19;2.30;;;1.10;;
9854;SDS011;4966;48.112;9.282;2022-09-30T01:38:58;4.43;;;1.05;;
9854;SDS011;4966;48.112;9.282;2022-09-30T01:41:51;1.77;;;1.00;;
9854;SDS011;4966;48.112;9.282;2022-09-30T01:49:45;3.17;;;1.27;;
9854;SDS011;4966;48.112;9.282;2022-09-30T01:55:08;5.53;;;1.30;;
9854;SDS011;4966;48.112;9.282;2022-09-30T02:00:14;2.95;;;1.40;;
9854;SDS011;4966;48.112;9.282;2022-09-30T02:08:09;3.25;;;1.63;;
9854;SDS011;4966;48.112;9.282;2022-09-30T02:10:41;2.88;;;1.33;;
9854;SDS011;4966;48.112;9.282;2022-09-30T02:13:14;2.72;;;1.50;;
9854;SDS011;4966;48.112;9.282;2022-09-30T02:15:50;3.20;;;1.23;;
9854;SDS011;4966;48.112;9.282;2022-09-30T02:18:35;2.35;;;1.30;;
9854;SDS011;4966;48.112;9.282;2022-09-30T02:21:05;4.05;;;1.70;;
9854;SDS011;4966;48.112;9.282;2022-09-30T02:23:34;4.60;;;1.85;;
9854;SDS011;4966;48.112;9.282;2022-09-30T02:26:08;6.45;;;1.80;;
9854;SDS011;4966;48.112;9.282;2022-09-30T02:29:00;5.15;;;1.50;;
9854;SDS011;4966;48.112;9.282;2022-09-30T02:31:32;8.75;;;1.60;;
9854;SDS011;4966;48.112;9.282;2022-09-30T02:36:43;4.75;;;1.67;;
9854;SDS011;4966;48.112;9.282;2022-09-30T02:39:15;8.07;;;1.63;;
9854;SDS011;4966;48.112;9.282;2022-09-30T02:41:51;6.63;;;1.35;;
9854;SDS011;4966;48.112;9.282;2022-09-30T02:44:19;8.68;;;1.48;;
9854;SDS011;4966;48.112;9.282;2022-09-30T02:49:30;7.50;;;1.63;;
9854;SDS011;4966;48.112;9.282;2022-09-30T02:55:04;13.82;;;2.17;;
9854;SDS011;4966;48.112;9.282;2022-09-30T02:57:55;11.18;;;2.33;;
9854;SDS011;4966;48.112;9.282;2022-09-30T03:00:29;34.92;;;2.78;;
9854;SDS011;4966;48.112;9.282;2022-09-30T03:02:55;76.75;;;3.60;;
9854;SDS011;4966;48.112;9.282;2022-09-30T03:05:27;50.75;;;3.22;;
9854;SDS011;4966;48.112;9.282;2022-09-30T03:07:53;34.22;;;2.83;;
9854;SDS011;4966;48.112;9.282;2022-09-30T03:10:19;24.90;;;2.85;;
9854;SDS011;4966;48.112;9.282;2022-09-30T03:13:32;28.30;;;3.10;;
9854;SDS011;4966;48.112;9.282;2022-09-30T03:43:08;38.38;;;2.50;;
9854;SDS011;4966;48.112;9.282;2022-09-30T03:45:44;45.63;;;2.40;;
9854;SDS011;4966;48.112;9.282;2022-09-30T03:48:25;49.13;;;2.50;;
9854;SDS011;4966;48.112;9.282;2022-09-30T03:50:53;31.85;;;2.33;;
9854;SDS011;4966;48.112;9.282;2022-09-30T03:53:20;24.30;;;2.13;;
9854;SDS011;4966;48.112;9.282;2022-09-30T03:55:46;33.70;;;2.13;;
9854;SDS011;4966;48.112;9.282;2022-09-30T03:58:15;39.85;;;2.42;;
9854;SDS011;4966;48.112;9.282;2022-09-30T04:00:44;23.23;;;2.03;;
9854;SDS011;4966;48.112;9.282;2022-09-30T04:03:13;47.25;;;2.80;;
9854;SDS011;4966;48.112;9.282;2022-09-30T04:05:39;27.63;;;2.53;;
9854;SDS011;4966;48.112;9.282;2022-09-30T04:08:04;43.33;;;2.67;;
9854;SDS011;4966;48.112;9.282;2022-09-30T04:10:30;33.08;;;2.58;;
9854;SDS011;4966;48.112;9.282;2022-09-30T04:12:55;16.80;;;2.10;;
9854;SDS011;4966;48.112;9.282;2022-09-30T04:15:21;21.88;;;2.17;;
9854;SDS011;4966;48.112;9.282;2022-09-30T04:17:47;29.92;;;3.15;;
9854;SDS011;4966;48.112;9.282;2022-09-30T04:20:12;32.25;;;6.18;;
9854;SDS011;4966;48.112;9.282;2022-09-30T04:22:38;15.80;;;2.40;;
9854;SDS011;4966;48.112;9.282;2022-09-30T04:25:03;17.63;;;2.47;;
9854;SDS011;4966;48.112;9.282;2022-09-30T04:27:29;29.13;;;2.17;;
9854;SDS011;4966;48.112;9.282;2022-09-30T04:29:54;17.05;;;2.25;;
9854;SDS011;4966;48.112;9.282;2022-09-30T04:32:23;26.02;;;2.50;;
9854;SDS011;4966;48.112;9.282;2022-09-30T04:34:49;18.73;;;2.45;;
9854;SDS011;4966;48.112;9.282;2022-09-30T04:37:15;6.70;;;2.35;;
9854;SDS011;4966;48.112;9.282;2022-09-30T04:39:40;9.77;;;2.90;;
9854;SDS011;4966;48.112;9.282;2022-09-30T04:42:06;8.70;;;3.80;;
9854;SDS011;4966;48.112;9.282;2022-09-30T04:44:31;9.75;;;2.83;;
9854;SDS011;4966;48.112;9.282;2022-09-30T04:46:56;6.22;;;2.83;;
9854;SDS011;4966;48.112;9.282;2022-09-30T04:49:22;3.95;;;2.17;;
9854;SDS011;4966;48.112;9.282;2022-09-30T04:51:48;11.38;;;6.43;;
9854;SDS011;4966;48.112;9.282;2022-09-30T04:54:13;6.68;;;3.90;;
9854;SDS011;4966;48.112;9.282;2022-09-30T04:56:40;11.70;;;7.03;;
9854;SDS011;4966;48.112;9.282;2022-09-30T04:59:06;10.85;;;5.35;;
9854;SDS011;4966;48.112;9.282;2022-09-30T05:01:32;6.85;;;3.70;;
9854;SDS011;4966;48.112;9.282;2022-09-30T05:03:57;7.07;;;4.25;;
9854;SDS011;4966;48.112;9.282;2022-09-30T05:06:23;7.18;;;2.95;;
9854;SDS011;4966;48.112;9.282;2022-09-30T05:08:48;4.75;;;2.58;;
9854;SDS011;4966;48.112;9.282;2022-09-30T05:11:15;5.97;;;3.53;;
9854;SDS011;4966;48.112;9.282;2022-09-30T05:13:42;6.07;;;2.60;;
9854;SDS011;4966;48.112;9.282;2022-09-30T05:16:08;4.40;;;2.30;;
9854;SDS011;4966;48.112;9.282;2022-09-30T05:18:34;4.60;;;2.28;;
9854;SDS011;4966;48.112;9.282;2022-09-30T05:21:00;7.07;;;2.33;;
9854;SDS011;4966;48.112;9.282;2022-09-30T05:23:27;9.55;;;2.40;;
9854;SDS011;4966;48.112;9.282;2022-09-30T05:25:54;4.47;;;2.10;;
9854;SDS011;4966;48.112;9.282;2022-09-30T05:28:20;7.93;;;4.22;;
9854;SDS011;4966;48.112;9.282;2022-09-30T05:30:45;6.85;;;4.03;;
9854;SDS011;4966;48.112;9.282;2022-09-30T05:33:12;6.75;;;4.30;;
9854;SDS011;4966;48.112;9.282;2022-09-30T05:35:38;6.43;;;3.53;;
9854;SDS011;4966;48.112;9.282;2022-09-30T05:38:05;5.82;;;2.60;;
9854;SDS011;4966;48.112;9.282;2022-09-30T05:40:31;6.80;;;2.97;;
9854;SDS011;4966;48.112;9.282;2022-09-30T05:42:57;9.32;;;3.25;;
9854;SDS011;4966;48.112;9.282;2022-09-30T05:45:23;6.78;;;3.03;;
9854;SDS011;4966;48.112;9.282;2022-09-30T05:47:50;6.43;;;3.28;;
9854;SDS011;4966;48.112;9.282;2022-09-30T05:50:16;17.80;;;6.80;;
9854;SDS011;4966;48.112;9.282;2022-09-30T05:52:41;10.27;;;4.80;;
9854;SDS011;4966;48.112;9.282;2022-09-30T05:55:07;9.57;;;4.75;;
9854;SDS011;4966;48.112;9.282;2022-09-30T05:57:32;9.52;;;4.90;;
9854;SDS011;4966;48.112;9.282;2022-09-30T05:59:58;8.43;;;4.65;;
9854;SDS011;4966;48.112;9.282;2022-09-30T06:02:23;10.52;;;5.60;;
9854;SDS011;4966;48.112;9.282;2022-09-30T06:04:48;13.48;;;4.75;;
9854;SDS011;4966;48.112;9.282;2022-09-30T06:07:14;9.25;;;5.90;;
9854;SDS011;4966;48.112;9.282;2022-09-30T06:09:41;9.32;;;4.57;;
9854;SDS011;4966;48.112;9.282;2022-09-30T06:12:06;11.70;;;5.28;;
9854;SDS011;4966;48.112;9.282;2022-09-30T06:14:32;9.63;;;4.30;;
9854;SDS011;4966;48.112;9.282;2022-09-30T06:16:57;9.02;;;4.20;;
9854;SDS011;4966;48.112;9.282;2022-09-30T06:19:26;9.82;;;4.60;;
9854;SDS011;4966;48.112;9.282;2022-09-30T06:21:54;11.70;;;5.07;;
9854;SDS011;4966;48.112;9.282;2022-09-30T06:24:20;9.90;;;5.03;;
9854;SDS011;4966;48.112;9.282;2022-09-30T06:26:45;11.95;;;5.63;;
9854;SDS011;4966;48.112;9.282;2022-09-30T06:29:11;11.20;;;4.95;;
9854;SDS011;4966;48.112;9.282;2022-09-30T06:31:36;9.90;;;4.93;;
9854;SDS011;4966;48.112;9.282;2022-09-30T06:34:02;10.40;;;5.50;;
9854;SDS011;4966;48.112;9.282;2022-09-30T06:36:27;11.30;;;4.78;;
9854;SDS011;4966;48.112;9.282;2022-09-30T06:38:53;9.45;;;5.03;;
9854;SDS011;4966;48.112;9.282;2022-09-30T06:41:19;18.80;;;5.15;;
9854;SDS011;4966;48.112;9.282;2022-09-30T06:43:44;11.88;;;5.95;;
9854;SDS011;4966;48.112;9.282;2022-09-30T06:46:10;11.60;;;5.85;;
9854;SDS011;4966;48.112;9.282;2022-09-30T06:48:36;14.45;;;5.43;;
9854;SDS011;4966;48.112;9.282;2022-09-30T06:51:01;12.68;;;5.50;;
9854;SDS011;4966;48.112;9.282;2022-09-30T06:53:27;14.85;;;5.53;;
9854;SDS011;4966;48.112;9.282;2022-09-30T06:55:56;13.07;;;6.13;;
9854;SDS011;4966;48.112;9.282;2022-09-30T07:00:57;11.13;;;5.88;;
9854;SDS011;4966;48.112;9.282;2022-09-30T07:03:28;15.63;;;6.35;;
9854;SDS011;4966;48.112;9.282;2022-09-30T07:05:56;12.68;;;6.45;;
9854;SDS011;4966;48.112;9.282;2022-09-30T07:08:27;15.90;;;6.18;;
9854;SDS011;4966;48.112;9.282;2022-09-30T07:10:55;12.85;;;5.88;;
9854;SDS011;4966;48.112;9.282;2022-09-30T07:13:22;13.52;;;6.20;;
9854;SDS011;4966;48.112;9.282;2022-09-30T07:15:47;12.63;;;6.20;;
9854;SDS011;4966;48.112;9.282;2022-09-30T07:18:13;12.32;;;5.85;;
9854;SDS011;4966;48.112;9.282;2022-09-30T07:20:40;12.18;;;6.50;;
9854;SDS011;4966;48.112;9.282;2022-09-30T07:23:05;14.75;;;6.93;;
9854;SDS011;4966;48.112;9.282;2022-09-30T07:25:30;12.95;;;6.22;;
9854;SDS011;4966;48.112;9.282;2022-09-30T07:27:56;12.52;;;5.78;;
9854;SDS011;4966;48.112;9.282;2022-09-30T07:30:21;11.18;;;5.28;;
9854;SDS011;4966;48.112;9.282;2022-09-30T07:32:47;10.00;;;5.10;;
9854;SDS011;4966;48.112;9.282;2022-09-30T07:35:13;10.60;;;5.18;;
9854;SDS011;4966;48.112;9.282;2022-09-30T07:37:38;11.55;;;5.00;;
9854;SDS011;4966;48.112;9.282;2022-09-30T07:40:05;13.35;;;5.50;;
9854;SDS011;4966;48.112;9.282;2022-09-30T07:42:32;13.40;;;5.30;;
9854;SDS011;4966;48.112;9.282;2022-09-30T07:45:00;12.07;;;5.68;;
9854;SDS011;4966;48.112;9.282;2022-09-30T07:47:26;13.02;;;5.88;;
9854;SDS011;4966;48.112;9.282;2022-09-30T07:49:51;10.43;;;4.70;;
9854;SDS011;4966;48.112;9.282;2022-09-30T07:52:16;11.25;;;5.15;;
9854;SDS011;4966;48.112;9.282;2022-09-30T07:54:42;10.07;;;4.65;;
9854;SDS011;4966;48.112;9.282;2022-09-30T07:57:07;8.70;;;4.45;;
9854;SDS011;4966;48.112;9.282;2022-09-30T07:59:34;9.55;;;4.03;;
9854;SDS011;4966;48.112;9.282;2022-09-30T08:02:03;10.80;;;4.60;;
9854;SDS011;4966;48.112;9.282;2022-09-30T08:04:30;9.02;;;4.43;;
9854;SDS011;4966;48.112;9.282;2022-09-30T08:06:56;8.77;;;4.28;;
9854;SDS011;4966;48.112;9.282;2022-09-30T08:09:25;10.20;;;4.50;;
9854;SDS011;4966;48.112;9.282;2022-09-30T08:11:53;8.23;;;3.97;;
9854;SDS011;4966;48.112;9.282;2022-09-30T08:14:19;9.05;;;4.05;;
9854;SDS011;4966;48.112;9.282;2022-09-30T08:16:46;11.38;;;4.30;;
9854;SDS011;4966;48.112;9.282;2022-09-30T08:19:13;7.90;;;3.85;;
9854;SDS011;4966;48.112;9.282;2022-09-30T08:21:40;8.05;;;4.15;;
9854;SDS011;4966;48.112;9.282;2022-09-30T08:24:06;12.73;;;5.78;;
9854;SDS011;4966;48.112;9.282;2022-09-30T08:26:32;7.05;;;4.00;;
9854;SDS011;4966;48.112;9.282;2022-09-30T08:28:57;7.32;;;3.97;;
9854;SDS011;4966;48.112;9.282;2022-09-30T08:31:23;8.88;;;3.88;;
9854;SDS011;4966;48.112;9.282;2022-09-30T08:33:49;7.75;;;4.00;;
9854;SDS011;4966;48.112;9.282;2022-09-30T08:36:16;10.30;;;5.20;;
9854;SDS011;4966;48.112;9.282;2022-09-30T08:38:43;6.85;;;3.65;;
9854;SDS011;4966;48.112;9.282;2022-09-30T08:43:53;7.45;;;4.00;;
9854;SDS011;4966;48.112;9.282;2022-09-30T08:49:09;9.50;;;3.78;;
9854;SDS011;4966;48.112;9.282;2022-09-30T08:51:38;7.40;;;3.95;;
9854;SDS011;4966;48.112;9.282;2022-09-30T08:54:11;8.52;;;3.97;;
9854;SDS011;4966;48.112;9.282;2022-09-30T08:56:40;6.30;;;3.65;;
9854;SDS011;4966;48.112;9.282;2022-09-30T09:02:03;5.25;;;3.40;;
9854;SDS011;4966;48.112;9.282;2022-09-30T09:04:38;7.70;;;3.38;;
9854;SDS011;4966;48.112;9.282;2022-09-30T09:07:09;6.40;;;3.50;;
9854;SDS011;4966;48.112;9.282;2022-09-30T09:18:45;5.40;;;3.05;;
9854;SDS011;4966;48.112;9.282;2022-09-30T09:21:22;5.68;;;3.28;;
9854;SDS011;4966;48.112;9.282;2022-09-30T09:24:02;6.05;;;3.65;;
9854;SDS011;4966;48.112;9.282;2022-09-30T09:26:31;6.38;;;3.47;;
9854;SDS011;4966;48.112;9.282;2022-09-30T09:29:21;6.03;;;3.33;;
9854;SDS011;4966;48.112;9.282;2022-09-30T09:31:52;5.47;;;3.35;;
9854;SDS011;4966;48.112;9.282;2022-09-30T09:34:18;8.15;;;3.67;;
9854;SDS011;4966;48.112;9.282;2022-09-30T09:37:03;6.00;;;3.13;;
9854;SDS011;4966;48.112;9.282;2022-09-30T09:39:44;6.10;;;3.35;;
9854;SDS011;4966;48.112;9.282;2022-09-30T09:47:58;6.95;;;3.55;;
9854;SDS011;4966;48.112;9.282;2022-09-30T09:53:19;6.78;;;3.80;;
9854;SDS011;4966;48.112;9.282;2022-09-30T09:55:53;6.90;;;3.63;;
9854;SDS011;4966;48.112;9.282;2022-09-30T09:58:23;6.55;;;3.80;;
9854;SDS011;4966;48.112;9.282;2022-09-30T10:00:50;5.97;;;3.35;;
9854;SDS011;4966;48.112;9.282;2022-09-30T10:03:16;6.75;;;3.78;;
9854;SDS011;4966;48.112;9.282;2022-09-30T10:08:26;5.15;;;2.90;;
9854;SDS011;4966;48.112;9.282;2022-09-30T10:11:03;4.63;;;2.70;;
9854;SDS011;4966;48.112;9.282;2022-09-30T10:13:32;6.45;;;3.08;;
9854;SDS011;4966;48.112;9.282;2022-09-30T10:16:08;5.30;;;2.72;;
9854;SDS011;4966;48.112;9.282;2022-09-30T10:18:48;4.15;;;2.42;;
9854;SDS011;4966;48.112;9.282;2022-09-30T10:21:21;4.43;;;2.38;;
9854;SDS011;4966;48.112;9.282;2022-09-30T10:23:48;3.83;;;2.60;;
9854;SDS011;4966;48.112;9.282;2022-09-30T10:31:25;4.47;;;2.17;;
9854;SDS011;4966;48.112;9.282;2022-09-30T10:33:59;3.95;;;2.17;;
9854;SDS011;4966;48.112;9.282;2022-09-30T10:36:45;4.55;;;2.50;;
9854;SDS011;4966;48.112;9.282;2022-09-30T10:39:24;5.32;;;3.00;;
9854;SDS011;4966;48.112;9.282;2022-09-30T10:42:26;5.10;;;2.78;;
9854;SDS011;4966;48.112;9.282;2022-09-30T10:47:30;5.88;;;3.08;;
9854;SDS011;4966;48.112;9.282;2022-09-30T10:52:33;5.07;;;2.92;;
9854;SDS011;4966;48.112;9.282;2022-09-30T10:57:46;4.13;;;2.45;;
9854;SDS011;4966;48.112;9.282;2022-09-30T11:00:13;5.43;;;3.00;;
9854;SDS011;4966;48.112;9.282;2022-09-30T11:02:45;5.72;;;3.50;;
9854;SDS011;4966;48.112;9.282;2022-09-30T11:05:20;6.55;;;3.30;;
9854;SDS011;4966;48.112;9.282;2022-09-30T11:10:32;4.10;;;2.33;;
9854;SDS011;4966;48.112;9.282;2022-09-30T11:13:06;4.90;;;2.53;;
9854;SDS011;4966;48.112;9.282;2022-09-30T11:18:28;5.35;;;2.40;;
9854;SDS011;4966;48.112;9.282;2022-09-30T11:21:03;4.13;;;2.20;;
9854;SDS011;4966;48.112;9.282;2022-09-30T11:23:35;4.53;;;2.47;;
9854;SDS011;4966;48.112;9.282;2022-09-30T11:26:32;3.70;;;2.10;;
9854;SDS011;4966;48.112;9.282;2022-09-30T11:44:42;5.63;;;2.53;;
9854;SDS011;4966;48.112;9.282;2022-09-30T11:47:18;3.63;;;2.00;;
9854;SDS011;4966;48.112;9.282;2022-09-30T11:55:30;4.30;;;2.58;;
9854;SDS011;4966;48.112;9.282;2022-09-30T11:58:09;5.50;;;2.67;;
9854;SDS011;4966;48.112;9.282;2022-09-30T12:00:40;4.40;;;2.72;;
9854;SDS011;4966;48.112;9.282;2022-09-30T12:03:12;5.05;;;2.53;;
9854;SDS011;4966;48.112;9.282;2022-09-30T12:05:57;5.00;;;2.83;;
9854;SDS011;4966;48.112;9.282;2022-09-30T12:13:35;5.28;;;3.05;;
9854;SDS011;4966;48.112;9.282;2022-09-30T12:16:12;6.28;;;3.35;;
9854;SDS011;4966;48.112;9.282;2022-09-30T12:18:45;4.72;;;2.83;;
9854;SDS011;4966;48.112;9.282;2022-09-30T12:23:52;5.22;;;2.95;;
9854;SDS011;4966;48.112;9.282;2022-09-30T12:26:23;4.68;;;2.92;;
9854;SDS011;4966;48.112;9.282;2022-09-30T12:34:15;6.22;;;3.60;;
9854;SDS011;4966;48.112;9.282;2022-09-30T12:47:47;5.38;;;3.17;;
9854;SDS011;4966;48.112;9.282;2022-09-30T12:50:19;6.03;;;3.55;;
9854;SDS011;4966;48.112;9.282;2022-09-30T12:52:48;5.30;;;3.10;;
9854;SDS011;4966;48.112;9.282;2022-09-30T12:57:55;6.72;;;3.33;;
9854;SDS011;4966;48.112;9.282;2022-09-30T13:00:26;7.55;;;3.63;;
9854;SDS011;4966;48.112;9.282;2022-09-30T13:03:08;5.60;;;3.17;;
9854;SDS011;4966;48.112;9.282;2022-09-30T13:10:45;6.15;;;3.13;;
9854;SDS011;4966;48.112;9.282;2022-09-30T13:15:52;7.05;;;3.20;;
9854;SDS011;4966;48.112;9.282;2022-09-30T13:20:55;7.18;;;3.00;;
9854;SDS011;4966;48.112;9.282;2022-09-30T13:23:43;4.95;;;2.80;;
9854;SDS011;4966;48.112;9.282;2022-09-30T13:31:27;3.90;;;2.40;;
9854;SDS011;4966;48.112;9.282;2022-09-30T13:36:27;5.28;;;3.15;;
9854;SDS011;4966;48.112;9.282;2022-09-30T13:42:00;4.40;;;2.63;;
9854;SDS011;4966;48.112;9.282;2022-09-30T13:44:53;3.45;;;2.25;;
9854;SDS011;4966;48.112;9.282;2022-09-30T13:47:39;4.68;;;2.67;;
9854;SDS011;4966;48.112;9.282;2022-09-30T13:50:28;7.03;;;3.03;;
9854;SDS011;4966;48.112;9.282;2022-09-30T13:52:57;5.47;;;3.15;;
9854;SDS011;4966;48.112;9.282;2022-09-30T13:55:33;4.07;;;2.78;;
9854;SDS011;4966;48.112;9.282;2022-09-30T13:58:17;6.68;;;3.05;;
9854;SDS011;4966;48.112;9.282;2022-09-30T14:17:40;4.93;;;3.20;;
9854;SDS011;4966;48.112;9.282;2022-09-30T14:23:13;4.82;;;3.00;;
9854;SDS011;4966;48.112;9.282;2022-09-30T14:25:52;7.32;;;2.92;;
9854;SDS011;4966;48.112;9.282;2022-09-30T14:28:30;5.40;;;2.95;;
9854;SDS011;4966;48.112;9.282;2022-09-30T14:31:01;10.15;;;3.40;;
9854;SDS011;4966;48.112;9.282;2022-09-30T14:33:34;4.80;;;3.10;;
9854;SDS011;4966;48.112;9.282;2022-09-30T14:36:01;4.07;;;2.60;;
9854;SDS011;4966;48.112;9.282;2022-09-30T14:38:30;5.25;;;2.88;;
9854;SDS011;4966;48.112;9.282;2022-09-30T14:40:59;4.95;;;3.03;;
9854;SDS011;4966;48.112;9.282;2022-09-30T14:43:34;6.65;;;3.03;;
9854;SDS011;4966;48.112;9.282;2022-09-30T14:46:07;3.67;;;2.25;;
9854;SDS011;4966;48.112;9.282;2022-09-30T14:48:48;3.70;;;2.13;;
9854;SDS011;4966;48.112;9.282;2022-09-30T14:51:15;4.20;;;2.47;;
9854;SDS011;4966;48.112;9.282;2022-09-30T14:53:53;5.57;;;2.65;;
9854;SDS011;4966;48.112;9.282;2022-09-30T14:56:20;5.25;;;2.40;;
9854;SDS011;4966;48.112;9.282;2022-09-30T14:58:50;4.55;;;2.70;;
9854;SDS011;4966;48.112;9.282;2022-09-30T15:01:17;5.50;;;2.45;;
9854;SDS011;4966;48.112;9.282;2022-09-30T15:03:56;5.53;;;2.80;;
9854;SDS011;4966;48.112;9.282;2022-09-30T15:06:27;4.72;;;2.78;;
9854;SDS011;4966;48.112;9.282;2022-09-30T15:11:27;6.15;;;2.92;;
9854;SDS011;4966;48.112;9.282;2022-09-30T15:13:59;5.70;;;3.10;;
9854;SDS011;4966;48.112;9.282;2022-09-30T15:16:31;5.18;;;3.20;;
9854;SDS011;4966;48.112;9.282;2022-09-30T15:18:58;8.32;;;2.97;;
9854;SDS011;4966;48.112;9.282;2022-09-30T15:21:25;4.88;;;2.88;;
9854;SDS011;4966;48.112;9.282;2022-09-30T15:23:55;5.20;;;2.70;;
9854;SDS011;4966;48.112;9.282;2022-09-30T15:26:23;6.72;;;3.20;;
9854;SDS011;4966;48.112;9.282;2022-09-30T15:28:49;5.00;;;2.67;;
9854;SDS011;4966;48.112;9.282;2022-09-30T15:31:17;4.28;;;2.53;;
9854;SDS011;4966;48.112;9.282;2022-09-30T15:33:43;4.60;;;2.65;;
9854;SDS011;4966;48.112;9.282;2022-09-30T15:36:13;8.68;;;2.65;;
9854;SDS011;4966;48.112;9.282;2022-09-30T15:38:45;4.28;;;2.22;;
9854;SDS011;4966;48.112;9.282;2022-09-30T15:41:14;4.93;;;2.63;;
9854;SDS011;4966;48.112;9.282;2022-09-30T15:49:08;6.85;;;4.07;;
9854;SDS011;4966;48.112;9.282;2022-09-30T15:54:43;5.15;;;3.05;;
9854;SDS011;4966;48.112;9.282;2022-09-30T15:57:54;7.07;;;4.07;;
9854;SDS011;4966;48.112;9.282;2022-09-30T16:00:42;6.53;;;3.70;;
9854;SDS011;4966;48.112;9.282;2022-09-30T16:06:05;9.25;;;3.33;;
9854;SDS011;4966;48.112;9.282;2022-09-30T16:08:38;6.63;;;3.53;;
9854;SDS011;4966;48.112;9.282;2022-09-30T16:11:07;6.03;;;3.90;;
9854;SDS011;4966;48.112;9.282;2022-09-30T16:13:33;7.70;;;4.00;;
9854;SDS011;4966;48.112;9.282;2022-09-30T16:16:09;6.28;;;3.90;;
9854;SDS011;4966;48.112;9.282;2022-09-30T16:18:42;6.10;;;3.88;;
9854;SDS011;4966;48.112;9.282;2022-09-30T16:21:24;9.20;;;4.47;;
9854;SDS011;4966;48.112;9.282;2022-09-30T16:26:45;12.85;;;7.10;;
9854;SDS011;4966;48.112;9.282;2022-09-30T16:29:11;8.27;;;5.03;;
9854;SDS011;4966;48.112;9.282;2022-09-30T16:31:37;7.90;;;4.40;;
9854;SDS011;4966;48.112;9.282;2022-09-30T16:34:02;7.68;;;4.78;;
9854;SDS011;4966;48.112;9.282;2022-09-30T16:36:28;8.65;;;4.03;;
9854;SDS011;4966;48.112;9.282;2022-09-30T16:38:53;7.43;;;4.28;;
9854;SDS011;4966;48.112;9.282;2022-09-30T16:41:19;6.95;;;3.78;;
9854;SDS011;4966;48.112;9.282;2022-09-30T16:43:44;9.18;;;4.38;;
9854;SDS011;4966;48.112;9.282;2022-09-30T16:46:09;8.65;;;4.00;;
9854;SDS011;4966;48.112;9.282;2022-09-30T16:48:35;5.72;;;3.50;;
9854;SDS011;4966;48.112;9.282;2022-09-30T16:53:27;5.82;;;3.53;;
9854;SDS011;4966;48.112;9.282;2022-09-30T16:55:53;7.22;;;3.90;;
9854;SDS011;4966;48.112;9.282;2022-09-30T16:58:18;30.15;;;10.90;;
9854;SDS011;4966;48.112;9.282;2022-09-30T17:00:44;11.30;;;5.28;;
9854;SDS011;4966;48.112;9.282;2022-09-30T17:03:10;8.43;;;3.72;;
9854;SDS011;4966;48.112;9.282;2022-09-30T17:05:38;6.25;;;3.40;;
9854;SDS011;4966;48.112;9.282;2022-09-30T17:08:07;12.70;;;6.65;;
9854;SDS011;4966;48.112;9.282;2022-09-30T17:10:36;6.72;;;3.80;;
9854;SDS011;4966;48.112;9.282;2022-09-30T17:13:01;4.88;;;2.70;;
9854;SDS011;4966;48.112;9.282;2022-09-30T17:15:28;5.28;;;3.25;;
9854;SDS011;4966;48.112;9.282;2022-09-30T17:17:55;5.97;;;2.88;;
9854;SDS011;4966;48.112;9.282;2022-09-30T17:20:21;5.70;;;2.90;;
9854;SDS011;4966;48.112;9.282;2022-09-30T17:22:47;7.22;;;3.10;;
9854;SDS011;4966;48.112;9.282;2022-09-30T17:25:13;5.55;;;2.53;;
9854;SDS011;4966;48.112;9.282;2022-09-30T17:27:39;7.25;;;3.20;;
9854;SDS011;4966;48.112;9.282;2022-09-30T17:30:05;7.13;;;2.80;;
9854;SDS011;4966;48.112;9.282;2022-09-30T17:32:32;6.13;;;3.00;;
9854;SDS011;4966;48.112;9.282;2022-09-30T17:34:58;12.95;;;5.38;;
9854;SDS011;4966;48.112;9.282;2022-09-30T17:37:24;7.47;;;2.90;;
9854;SDS011;4966;48.112;9.282;2022-09-30T17:39:51;5.03;;;2.83;;
9854;SDS011;4966;48.112;9.282;2022-09-30T17:42:16;5.30;;;2.03;;
9854;SDS011;4966;48.112;9.282;2022-09-30T17:45:00;4.38;;;1.98;;
9854;SDS011;4966;48.112;9.282;2022-09-30T17:47:25;4.97;;;2.03;;
9854;SDS011;4966;48.112;9.282;2022-09-30T17:49:51;5.32;;;2.28;;
9854;SDS011;4966;48.112;9.282;2022-09-30T17:52:17;4.53;;;2.10;;
9854;SDS011;4966;48.112;9.282;2022-09-30T17:54:43;5.07;;;2.05;;
9854;SDS011;4966;48.112;9.282;2022-09-30T17:57:08;4.43;;;2.13;;
9854;SDS011;4966;48.112;9.282;2022-09-30T17:59:34;3.85;;;1.88;;
9854;SDS011;4966;48.112;9.282;2022-09-30T18:01:59;4.30;;;1.80;;
9854;SDS011;4966;48.112;9.282;2022-09-30T18:04:25;3.95;;;2.13;;
9854;SDS011;4966;48.112;9.282;2022-09-30T18:06:51;3.13;;;1.98;;
9854;SDS011;4966;48.112;9.282;2022-09-30T18:09:17;4.03;;;2.13;;
9854;SDS011;4966;48.112;9.282;2022-09-30T18:11:42;15.57;;;7.65;;
9854;SDS011;4966;48.112;9.282;2022-09-30T18:14:09;9.35;;;4.95;;
9854;SDS011;4966;48.112;9.282;2022-09-30T18:16:34;7.68;;;1.92;;
9854;SDS011;4966;48.112;9.282;2022-09-30T18:19:00;3.83;;;2.05;;
9854;SDS011;4966;48.112;9.282;2022-09-30T18:21:28;3.67;;;1.55;;
9854;SDS011;4966;48.112;9.282;2022-09-30T18:23:54;3.22;;;1.98;;
9854;SDS011;4966;48.112;9.282;2022-09-30T18:26:23;4.85;;;2.55;;
9854;SDS011;4966;48.112;9.282;2022-09-30T18:28:50;5.20;;;2.30;;
9854;SDS011;4966;48.112;9.282;2022-09-30T18:31:17;6.07;;;2.97;;
9854;SDS011;4966;48.112;9.282;2022-09-30T18:33:53;3.55;;;1.92;;
9854;SDS011;4966;48.112;9.282;2022-09-30T18:36:22;4.50;;;2.00;;
9854;SDS011;4966;48.112;9.282;2022-09-30T18:38:48;6.57;;;1.67;;
9854;SDS011;4966;48.112;9.282;2022-09-30T18:41:14;3.50;;;1.30;;
9854;SDS011;4966;48.112;9.282;2022-09-30T18:43:40;5.47;;;1.40;;
9854;SDS011;4966;48.112;9.282;2022-09-30T18:48:35;4.18;;;1.92;;
9854;SDS011;4966;48.112;9.282;2022-09-30T18:51:01;3.42;;;1.67;;
9854;SDS011;4966;48.112;9.282;2022-09-30T18:53:27;3.72;;;2.10;;
9854;SDS011;4966;48.112;9.282;2022-09-30T18:55:52;6.60;;;2.42;;
9854;SDS011;4966;48.112;9.282;2022-09-30T18:58:18;9.57;;;2.47;;
9854;SDS011;4966;48.112;9.282;2022-09-30T19:00:43;11.95;;;5.50;;
9854;SDS011;4966;48.112;9.282;2022-09-30T19:03:09;10.38;;;5.05;;
9854;SDS011;4966;48.112;9.282;2022-09-30T19:05:37;12.73;;;3.38;;
9854;SDS011;4966;48.112;9.282;2022-09-30T19:08:04;6.55;;;2.90;;
9854;SDS011;4966;48.112;9.282;2022-09-30T19:10:29;3.58;;;2.20;;
9854;SDS011;4966;48.112;9.282;2022-09-30T19:12:54;6.07;;;2.22;;
9854;SDS011;4966;48.112;9.282;2022-09-30T19:15:20;11.05;;;3.28;;
9854;SDS011;4966;48.112;9.282;2022-09-30T19:17:47;26.23;;;12.05;;
9854;SDS011;4966;48.112;9.282;2022-09-30T19:20:14;5.97;;;2.95;;
9854;SDS011;4966;48.112;9.282;2022-09-30T19:22:41;6.57;;;3.40;;